createdAt,value
2017-01-28T00:00:42.591Z,-2.97
2017-01-28T00:01:53.070Z,-2.95
2017-01-28T00:03:03.855Z,-2.86
2017-01-28T00:04:12.972Z,-2.89
2017-01-28T00:05:22.172Z,-2.99
2017-01-28T00:06:32.670Z,-2.92
2017-01-28T00:07:42.181Z,-2.92
2017-01-28T00:08:51.632Z,-2.83
2017-01-28T00:10:01.244Z,-2.91
2017-01-28T00:11:12.143Z,-2.83
2017-01-28T00:12:22.609Z,-2.89
2017-01-28T00:13:33.151Z,-2.89
2017-01-28T00:14:44.271Z,-2.91
2017-01-28T00:15:53.848Z,-2.94
2017-01-28T00:17:02.943Z,-2.92
2017-01-28T00:18:12.468Z,-2.97
2017-01-28T00:19:21.584Z,-2.94
2017-01-28T00:20:32.694Z,-2.98
2017-01-28T00:21:43.373Z,-3.01
2017-01-28T00:22:52.522Z,-2.97
2017-01-28T00:24:02.081Z,-3.04
2017-01-28T00:25:11.185Z,-3.04
2017-01-28T00:26:20.551Z,-3.1
2017-01-28T00:27:29.667Z,-3.1
2017-01-28T00:28:39.588Z,-3.13
2017-01-28T00:29:50.463Z,-3.22
2017-01-28T00:30:59.559Z,-3.17
2017-01-28T00:32:11.086Z,-3.13
2017-01-28T00:33:20.593Z,-3.1
2017-01-28T00:34:29.678Z,-3.2
2017-01-28T00:35:38.791Z,-3.2
2017-01-28T00:36:47.917Z,-3.13
2017-01-28T00:37:57.824Z,-3.2
2017-01-28T00:39:07.021Z,-3.19
2017-01-28T00:40:19.015Z,-3.23
2017-01-28T00:41:29.984Z,-3.27
2017-01-28T00:42:39.107Z,-3.22
2017-01-28T00:43:50.289Z,-3.35
2017-01-28T00:44:59.811Z,-3.3
2017-01-28T00:46:09.436Z,-3.31
2017-01-28T00:47:19.013Z,-3.34
2017-01-28T00:48:29.577Z,-3.56
2017-01-28T00:49:40.510Z,-3.41
2017-01-28T00:50:52.782Z,-3.54
2017-01-28T00:52:01.966Z,-3.63
2017-01-28T00:53:11.547Z,-3.63
2017-01-28T00:54:22.102Z,-3.66
2017-01-28T00:55:32.916Z,-3.63
2017-01-28T00:56:42.043Z,-3.72
2017-01-28T00:57:54.338Z,-3.7
2017-01-28T00:59:06.620Z,-3.81
2017-01-28T01:00:16.582Z,-3.72
2017-01-28T01:01:26.083Z,-3.73
2017-01-28T01:02:36.615Z,-3.85
2017-01-28T01:03:47.125Z,-3.81
2017-01-28T01:04:58.026Z,-3.87
2017-01-28T01:06:08.930Z,-3.84
2017-01-28T01:07:19.687Z,-3.9
2017-01-28T01:08:29.246Z,-3.87
2017-01-28T01:09:38.841Z,-3.9
2017-01-28T01:10:50.169Z,-3.92
2017-01-28T01:12:02.138Z,-3.9
2017-01-28T01:13:12.961Z,-3.87
2017-01-28T01:14:22.082Z,-3.9
2017-01-28T01:15:31.606Z,-3.97
2017-01-28T01:16:40.709Z,-3.92
2017-01-28T01:17:51.244Z,-3.98
2017-01-28T01:19:02.147Z,-4.06
2017-01-28T01:20:14.140Z,-4.09
2017-01-28T01:21:26.065Z,-4.11
2017-01-28T01:22:38.322Z,-4.11
2017-01-28T01:23:47.454Z,-4.17
2017-01-28T01:24:57.202Z,-4.21
2017-01-28T01:26:06.298Z,-4.16
2017-01-28T01:27:17.169Z,-4.17
2017-01-28T01:28:28.041Z,-4.1
2017-01-28T01:29:37.132Z,-4.17
2017-01-28T01:30:47.924Z,-4.06
2017-01-28T01:31:58.432Z,-4.09
2017-01-28T01:33:07.565Z,-4.05
2017-01-28T01:34:18.061Z,-4.14
2017-01-28T01:35:27.197Z,-4.1
2017-01-28T01:36:39.318Z,-4.11
2017-01-28T01:37:50.148Z,-4.17
2017-01-28T01:38:59.320Z,-4.17
2017-01-28T01:40:08.409Z,-4.13
2017-01-28T01:41:17.492Z,-4.16
2017-01-28T01:42:26.786Z,-4.14
2017-01-28T01:43:37.246Z,-4.11
2017-01-28T01:44:47.701Z,-4.11
2017-01-28T01:45:58.220Z,-4.13
2017-01-28T01:47:07.353Z,-4.14
2017-01-28T01:48:18.517Z,-4.21
2017-01-28T01:49:30.431Z,-4.16
2017-01-28T01:50:40.931Z,-4.09
2017-01-28T01:51:50.063Z,-4.19
2017-01-28T01:53:00.515Z,-4.11
2017-01-28T01:54:11.252Z,-4.16
2017-01-28T01:55:21.721Z,-4.16
2017-01-28T01:56:32.193Z,-4.14
2017-01-28T01:57:43.071Z,-4.11
2017-01-28T01:58:52.626Z,-4.09
2017-01-28T02:00:07.512Z,-4.06
2017-01-28T02:01:18.612Z,-4.16
2017-01-28T02:02:28.119Z,-4.28
2017-01-28T02:03:38.626Z,-4.28
2017-01-28T02:04:47.724Z,-4.32
2017-01-28T02:05:57.063Z,-4.31
2017-01-28T02:07:07.524Z,-4.27
2017-01-28T02:08:16.587Z,-4.27
2017-01-28T02:09:25.678Z,-4.25
2017-01-28T02:10:34.750Z,-4.31
2017-01-28T02:11:44.136Z,-4.27
2017-01-28T02:12:55.011Z,-4.29
2017-01-28T02:14:04.974Z,-4.31
2017-01-28T02:15:14.059Z,-4.31
2017-01-28T02:16:23.562Z,-4.29
2017-01-28T02:17:37.108Z,-4.27
2017-01-28T02:18:47.585Z,-4.28
2017-01-28T02:19:57.100Z,-4.29
2017-01-28T02:21:06.611Z,-4.29
2017-01-28T02:22:18.512Z,-4.31
2017-01-28T02:23:27.841Z,-4.29
2017-01-28T02:24:38.326Z,-4.28
2017-01-28T02:25:48.286Z,-4.28
2017-01-28T02:26:57.790Z,-4.27
2017-01-28T02:28:08.297Z,-4.29
2017-01-28T02:29:19.024Z,-4.24
2017-01-28T02:30:28.519Z,-4.14
2017-01-28T02:31:38.425Z,-4.09
2017-01-28T02:32:47.924Z,-3.94
2017-01-28T02:33:57.094Z,-3.95
2017-01-28T02:35:07.891Z,-3.94
2017-01-28T02:36:16.970Z,-3.95
2017-01-28T02:37:26.080Z,-3.92
2017-01-28T02:38:36.566Z,-3.91
2017-01-28T02:39:46.449Z,-3.87
2017-01-28T02:40:57.597Z,-3.87
2017-01-28T02:42:08.480Z,-3.9
2017-01-28T02:43:17.539Z,-3.87
2017-01-28T02:44:26.612Z,-3.76
2017-01-28T02:45:35.721Z,-3.84
2017-01-28T02:46:45.045Z,-3.81
2017-01-28T02:47:54.089Z,-3.81
2017-01-28T02:49:04.942Z,-3.82
2017-01-28T02:50:14.675Z,-3.84
2017-01-28T02:51:26.521Z,-3.9
2017-01-28T02:52:37.254Z,-3.84
2017-01-28T02:53:48.236Z,-3.79
2017-01-28T02:54:59.494Z,-3.87
2017-01-28T02:56:08.980Z,-3.88
2017-01-28T02:57:19.422Z,-3.81
2017-01-28T02:58:29.152Z,-3.9
2017-01-28T02:59:38.218Z,-3.91
2017-01-28T03:00:47.322Z,-3.88
2017-01-28T03:01:57.780Z,-3.92
2017-01-28T03:03:06.904Z,-3.95
2017-01-28T03:04:18.990Z,-3.95
2017-01-28T03:05:28.511Z,-4.05
2017-01-28T03:06:37.632Z,-4.05
2017-01-28T03:07:46.719Z,-4.11
2017-01-28T03:08:57.627Z,-4.13
2017-01-28T03:10:09.295Z,-4.1
2017-01-28T03:11:18.451Z,-4.19
2017-01-28T03:12:28.747Z,-4.28
2017-01-28T03:13:38.220Z,-4.28
2017-01-28T03:14:47.766Z,-4.28
2017-01-28T03:15:57.114Z,-4.28
2017-01-28T03:17:06.636Z,-4.31
2017-01-28T03:18:15.689Z,-4.17
2017-01-28T03:19:27.602Z,-4.19
2017-01-28T03:20:39.884Z,-4.19
2017-01-28T03:21:50.587Z,-4.13
2017-01-28T03:22:59.729Z,-4.11
2017-01-28T03:24:09.195Z,-4.14
2017-01-28T03:25:18.332Z,-4.06
2017-01-28T03:26:27.604Z,-3.92
2017-01-28T03:27:36.941Z,-3.97
2017-01-28T03:28:48.786Z,-4.02
2017-01-28T03:29:57.904Z,-3.95
2017-01-28T03:31:07.409Z,-4.02
2017-01-28T03:32:16.505Z,-3.97
2017-01-28T03:33:27.256Z,-3.95
2017-01-28T03:34:36.357Z,-3.92
2017-01-28T03:35:46.852Z,-4.02
2017-01-28T03:36:55.911Z,-3.97
2017-01-28T03:38:06.334Z,-3.95
2017-01-28T03:39:15.663Z,-3.9
2017-01-28T03:40:26.536Z,-3.95
2017-01-28T03:41:36.097Z,-3.91
2017-01-28T03:42:45.245Z,-3.98
2017-01-28T03:43:55.803Z,-3.92
2017-01-28T03:45:06.923Z,-4
2017-01-28T03:46:16.056Z,-4.05
2017-01-28T03:47:26.512Z,-4.21
2017-01-28T03:48:37.379Z,-4.16
2017-01-28T03:49:46.451Z,-4.09
2017-01-28T03:50:57.134Z,-3.92
2017-01-28T03:52:06.203Z,-3.91
2017-01-28T03:53:16.642Z,-3.91
2017-01-28T03:54:26.144Z,-3.85
2017-01-28T03:55:35.213Z,-3.82
2017-01-28T03:56:44.943Z,-3.91
2017-01-28T03:57:55.413Z,-3.97
2017-01-28T03:59:05.010Z,-3.95
2017-01-28T04:00:14.498Z,-3.97
2017-01-28T04:01:25.352Z,-3.9
2017-01-28T04:02:36.467Z,-3.92
2017-01-28T04:03:46.928Z,-3.88
2017-01-28T04:04:55.974Z,-3.87
2017-01-28T04:06:05.531Z,-3.94
2017-01-28T04:07:16.508Z,-3.97
2017-01-28T04:08:26.648Z,-3.94
2017-01-28T04:09:37.519Z,-4
2017-01-28T04:10:47.965Z,-3.92
2017-01-28T04:11:58.857Z,-3.92
2017-01-28T04:13:09.342Z,-3.94
2017-01-28T04:14:19.076Z,-3.91
2017-01-28T04:15:31.286Z,-3.92
2017-01-28T04:16:40.373Z,-3.92
2017-01-28T04:17:49.461Z,-3.95
2017-01-28T04:18:58.967Z,-3.97
2017-01-28T04:20:09.707Z,-4.17
2017-01-28T04:21:18.827Z,-4.16
2017-01-28T04:22:28.338Z,-4.1
2017-01-28T04:23:38.894Z,-4.25
2017-01-28T04:24:50.806Z,-4.19
2017-01-28T04:26:03.805Z,-4.16
2017-01-28T04:27:14.258Z,-4.11
2017-01-28T04:28:24.735Z,-4.13
2017-01-28T04:29:33.816Z,-4.16
2017-01-28T04:30:44.712Z,-4.09
2017-01-28T04:31:54.094Z,-4.13
2017-01-28T04:33:05.357Z,-4.21
2017-01-28T04:34:18.536Z,-4.39
2017-01-28T04:35:29.414Z,-4.34
2017-01-28T04:36:38.511Z,-4.43
2017-01-28T04:37:48.265Z,-4.49
2017-01-28T04:38:57.391Z,-4.42
2017-01-28T04:40:07.845Z,-4.47
2017-01-28T04:41:16.911Z,-4.45
2017-01-28T04:42:25.975Z,-4.43
2017-01-28T04:43:35.688Z,-4.42
2017-01-28T04:44:45.138Z,-4.5
2017-01-28T04:45:56.970Z,-4.42
2017-01-28T04:47:07.447Z,-4.42
2017-01-28T04:48:17.359Z,-4.49
2017-01-28T04:49:27.116Z,-4.37
2017-01-28T04:50:37.566Z,-4.42
2017-01-28T04:51:49.427Z,-4.39
2017-01-28T04:52:58.537Z,-4.42
2017-01-28T04:54:07.647Z,-4.43
2017-01-28T04:55:17.478Z,-4.29
2017-01-28T04:56:26.591Z,-4.42
2017-01-28T04:57:35.707Z,-4.37
2017-01-28T04:58:44.844Z,-4.43
2017-01-28T04:59:53.937Z,-4.39
2017-01-28T05:01:03.277Z,-4.32
2017-01-28T05:02:12.372Z,-4.37
2017-01-28T05:03:21.446Z,-4.47
2017-01-28T05:04:31.955Z,-4.4
2017-01-28T05:05:42.883Z,-4.52
2017-01-28T05:06:53.617Z,-4.39
2017-01-28T05:08:02.740Z,-4.47
2017-01-28T05:09:11.852Z,-4.58
2017-01-28T05:10:24.094Z,-4.49
2017-01-28T05:11:34.549Z,-4.5
2017-01-28T05:12:46.672Z,-4.53
2017-01-28T05:13:57.175Z,-4.55
2017-01-28T05:15:06.334Z,-4.6
2017-01-28T05:16:15.853Z,-4.55
2017-01-28T05:17:26.349Z,-4.46
2017-01-28T05:18:37.494Z,-4.47
2017-01-28T05:19:49.759Z,-4.49
2017-01-28T05:20:58.821Z,-4.4
2017-01-28T05:22:07.939Z,-4.46
2017-01-28T05:23:18.430Z,-4.45
2017-01-28T05:24:27.771Z,-4.39
2017-01-28T05:25:38.221Z,-4.4
2017-01-28T05:26:47.967Z,-4.42
2017-01-28T05:27:58.491Z,-4.39
2017-01-28T05:29:07.974Z,-4.45
2017-01-28T05:30:17.768Z,-4.35
2017-01-28T05:31:27.690Z,-4.46
2017-01-28T05:32:36.823Z,-4.45
2017-01-28T05:33:45.890Z,-4.42
2017-01-28T05:34:56.427Z,-4.47
2017-01-28T05:36:05.741Z,-4.39
2017-01-28T05:37:14.969Z,-4.53
2017-01-28T05:38:25.476Z,-4.49
2017-01-28T05:39:37.360Z,-4.46
2017-01-28T05:40:47.887Z,-4.61
2017-01-28T05:41:57.649Z,-4.58
2017-01-28T05:43:06.768Z,-4.53
2017-01-28T05:44:15.855Z,-4.61
2017-01-28T05:45:25.340Z,-4.6
2017-01-28T05:46:34.395Z,-4.6
2017-01-28T05:47:45.138Z,-4.61
2017-01-28T05:48:55.595Z,-4.53
2017-01-28T05:50:06.642Z,-4.5
2017-01-28T05:51:17.607Z,-4.5
2017-01-28T05:52:28.073Z,-4.42
2017-01-28T05:53:37.439Z,-4.43
2017-01-28T05:54:46.520Z,-4.37
2017-01-28T05:55:56.979Z,-4.37
2017-01-28T05:57:07.400Z,-4.45
2017-01-28T05:58:19.260Z,-4.31
2017-01-28T05:59:29.006Z,-4.37
2017-01-28T06:00:39.904Z,-4.37
2017-01-28T06:01:50.342Z,-4.43
2017-01-28T06:03:00.775Z,-4.5
2017-01-28T06:04:09.888Z,-4.49
2017-01-28T06:05:20.092Z,-4.46
2017-01-28T06:06:29.561Z,-4.52
2017-01-28T06:07:39.084Z,-4.39
2017-01-28T06:08:50.095Z,-4.46
2017-01-28T06:10:02.385Z,-4.45
2017-01-28T06:11:12.182Z,-4.5
2017-01-28T06:12:22.662Z,-4.5
2017-01-28T06:13:33.385Z,-4.57
2017-01-28T06:14:42.463Z,-4.57
2017-01-28T06:15:54.330Z,-4.61
2017-01-28T06:17:03.634Z,-4.78
2017-01-28T06:18:14.048Z,-4.74
2017-01-28T06:19:23.097Z,-4.78
2017-01-28T06:20:32.157Z,-4.7
2017-01-28T06:21:41.657Z,-4.84
2017-01-28T06:22:52.394Z,-4.85
2017-01-28T06:24:01.843Z,-4.78
2017-01-28T06:25:12.303Z,-4.88
2017-01-28T06:26:21.378Z,-4.85
2017-01-28T06:27:31.820Z,-4.89
2017-01-28T06:28:42.553Z,-4.99
2017-01-28T06:29:52.093Z,-5.02
2017-01-28T06:31:02.521Z,-4.99
2017-01-28T06:32:12.960Z,-5.09
2017-01-28T06:33:23.788Z,-5
2017-01-28T06:34:33.191Z,-5
2017-01-28T06:35:42.249Z,-5.06
2017-01-28T06:36:52.675Z,-5
2017-01-28T06:38:01.734Z,-4.97
2017-01-28T06:39:10.820Z,-4.94
2017-01-28T06:40:20.614Z,-4.91
2017-01-28T06:41:29.669Z,-4.92
2017-01-28T06:42:39.135Z,-4.94
2017-01-28T06:43:49.593Z,-4.92
2017-01-28T06:44:58.639Z,-4.94
2017-01-28T06:46:07.952Z,-4.99
2017-01-28T06:47:17.017Z,-5.03
2017-01-28T06:48:26.483Z,-5.14
2017-01-28T06:49:36.897Z,-5.03
2017-01-28T06:50:46.387Z,-5.1
2017-01-28T06:51:56.515Z,-5.15
2017-01-28T06:53:07.728Z,-5.14
2017-01-28T06:54:18.169Z,-5.03
2017-01-28T06:55:27.764Z,-5.12
2017-01-28T06:56:36.851Z,-5.09
2017-01-28T06:57:46.188Z,-5.02
2017-01-28T06:58:55.257Z,-4.89
2017-01-28T07:00:04.765Z,-4.86
2017-01-28T07:01:15.218Z,-4.91
2017-01-28T07:02:25.658Z,-4.91
2017-01-28T07:03:34.985Z,-4.89
2017-01-28T07:04:44.043Z,-4.84
2017-01-28T07:05:53.083Z,-4.88
2017-01-28T07:07:02.992Z,-4.88
2017-01-28T07:08:12.057Z,-4.88
2017-01-28T07:09:21.406Z,-4.89
2017-01-28T07:10:32.274Z,-4.85
2017-01-28T07:11:43.145Z,-4.88
2017-01-28T07:12:52.211Z,-4.91
2017-01-28T07:14:01.318Z,-4.91
2017-01-28T07:15:10.659Z,-5
2017-01-28T07:16:21.132Z,-4.96
2017-01-28T07:17:31.564Z,-5.06
2017-01-28T07:18:41.058Z,-5.15
2017-01-28T07:19:50.124Z,-5.09
2017-01-28T07:20:59.468Z,-5.06
2017-01-28T07:22:08.530Z,-5.12
2017-01-28T07:23:17.736Z,-5.03
2017-01-28T07:24:27.196Z,-5.07
2017-01-28T07:25:36.681Z,-5.07
2017-01-28T07:26:46.076Z,-5.12
2017-01-28T07:27:55.148Z,-5.12
2017-01-28T07:29:04.224Z,-5.06
2017-01-28T07:30:13.711Z,-5.09
2017-01-28T07:31:22.812Z,-5.1
2017-01-28T07:32:32.136Z,-5.07
2017-01-28T07:33:42.578Z,-5.06
2017-01-28T07:34:52.034Z,-5.03
2017-01-28T07:36:01.088Z,-5
2017-01-28T07:37:10.243Z,-4.92
2017-01-28T07:38:20.360Z,-4.91
2017-01-28T07:39:30.002Z,-4.89
2017-01-28T07:40:39.079Z,-4.91
2017-01-28T07:41:48.544Z,-4.82
2017-01-28T07:42:58.979Z,-4.85
2017-01-28T07:44:08.409Z,-4.76
2017-01-28T07:45:17.504Z,-4.85
2017-01-28T07:46:26.560Z,-4.74
2017-01-28T07:47:36.049Z,-4.76
2017-01-28T07:48:45.260Z,-4.73
2017-01-28T07:49:54.627Z,-4.78
2017-01-28T07:51:05.081Z,-4.78
2017-01-28T07:52:14.147Z,-4.79
2017-01-28T07:53:23.660Z,-4.67
2017-01-28T07:54:34.140Z,-4.81
2017-01-28T07:55:43.525Z,-4.68
2017-01-28T07:56:55.331Z,-4.66
2017-01-28T07:58:04.428Z,-4.61
2017-01-28T07:59:13.870Z,-4.57
2017-01-28T08:00:22.923Z,-4.39
2017-01-28T08:01:32.317Z,-4.27
2017-01-28T08:02:41.467Z,-4.06
2017-01-28T08:03:52.719Z,-3.58
2017-01-28T08:05:03.020Z,-3.26
2017-01-28T08:06:13.844Z,-2.71
2017-01-28T08:07:24.923Z,-2.37
2017-01-28T08:08:37.129Z,-1.96
2017-01-28T08:09:50.717Z,-1.53
2017-01-28T08:11:01.592Z,-1.28
2017-01-28T08:12:12.383Z,-0.96
2017-01-28T08:13:25.216Z,-0.87
2017-01-28T08:14:36.108Z,-0.76
2017-01-28T08:15:49.696Z,-0.66
2017-01-28T08:17:01.309Z,-0.58
2017-01-28T08:18:12.129Z,-0.34
2017-01-28T08:19:25.010Z,-0.19
2017-01-28T08:20:38.050Z,-0.16
2017-01-28T08:21:49.261Z,0.05
2017-01-28T08:23:00.488Z,0.08
2017-01-28T08:24:11.289Z,0.2
2017-01-28T08:25:24.163Z,0.31
2017-01-28T08:26:36.425Z,0.42
2017-01-28T08:27:47.318Z,0.4
2017-01-28T08:28:57.196Z,0.5
2017-01-28T08:30:08.057Z,0.48
2017-01-28T08:31:19.017Z,0.49
2017-01-28T08:32:30.271Z,0.49
2017-01-28T08:33:42.450Z,0.58
2017-01-28T08:34:53.264Z,0.64
2017-01-28T08:36:04.109Z,0.68
2017-01-28T08:37:15.253Z,0.93
2017-01-28T08:38:27.450Z,1.06
2017-01-28T08:39:38.295Z,1.22
2017-01-28T08:40:50.001Z,1.51
2017-01-28T08:42:00.835Z,1.69
2017-01-28T08:43:11.954Z,1.8
2017-01-28T08:44:23.195Z,2.09
2017-01-28T08:45:34.073Z,2.33
2017-01-28T08:46:46.253Z,2.51
2017-01-28T08:47:57.062Z,2.64
2017-01-28T08:49:08.527Z,2.59
2017-01-28T08:50:21.195Z,2.64
2017-01-28T08:51:34.758Z,2.62
2017-01-28T08:52:47.005Z,2.64
2017-01-28T08:53:59.721Z,2.6
2017-01-28T08:55:11.457Z,2.66
2017-01-28T08:56:22.275Z,2.67
2017-01-28T09:03:00.122Z,3.43
2017-01-28T09:04:11.069Z,3.55
2017-01-28T09:05:21.662Z,3.58
2017-01-28T09:06:32.655Z,3.62
2017-01-28T09:07:42.710Z,3.65
2017-01-28T09:08:53.150Z,3.72
2017-01-28T09:10:03.340Z,3.83
2017-01-28T09:11:14.339Z,3.8
2017-01-28T09:12:24.786Z,3.73
2017-01-28T09:13:35.415Z,3.67
2017-01-28T09:14:46.342Z,3.85
2017-01-28T09:15:57.267Z,4
2017-01-28T09:17:07.821Z,4
2017-01-28T09:18:18.378Z,4.03
2017-01-28T09:19:29.444Z,4.13
2017-01-28T09:20:40.349Z,4.27
2017-01-28T09:21:50.396Z,4.22
2017-01-28T09:23:00.951Z,4.28
2017-01-28T09:24:11.943Z,4.38
2017-01-28T09:25:22.899Z,4.34
2017-01-28T09:26:33.760Z,4.34
2017-01-28T09:27:44.844Z,4.28
2017-01-28T09:28:55.426Z,4.23
2017-01-28T09:30:06.446Z,4.16
2017-01-28T09:31:17.396Z,4.19
2017-01-28T09:32:28.212Z,4.38
2017-01-28T09:33:38.733Z,4.67
2017-01-28T09:34:49.397Z,4.73
2017-01-28T09:36:00.011Z,4.9
2017-01-28T09:37:11.022Z,5.07
2017-01-28T09:38:22.406Z,5.22
2017-01-28T09:39:33.332Z,5.16
2017-01-28T09:40:43.911Z,5.25
2017-01-28T09:41:54.466Z,5.17
2017-01-28T09:43:05.005Z,5.31
2017-01-28T09:44:16.401Z,5.29
2017-01-28T09:45:27.359Z,5.28
2017-01-28T09:46:37.554Z,5.33
2017-01-28T09:47:48.498Z,5.28
2017-01-28T09:48:59.591Z,5.11
2017-01-28T09:50:10.362Z,4.77
2017-01-28T09:50:40.507Z,4.77
2017-01-28T09:51:51.119Z,4.57
2017-01-28T09:53:01.811Z,4.27
2017-01-28T09:54:12.890Z,4.28
2017-01-28T09:55:23.232Z,4.23
2017-01-28T09:56:33.872Z,4.28
2017-01-28T09:57:44.493Z,4.18
2017-01-28T09:58:55.517Z,4.2
2017-01-28T10:00:06.555Z,4.2
2017-01-28T10:01:17.410Z,4.2
2017-01-28T10:02:28.201Z,4.15
2017-01-28T10:03:38.795Z,4.13
2017-01-28T10:04:49.290Z,4.28
2017-01-28T10:06:00.322Z,4.41
2017-01-28T10:07:11.630Z,4.55
2017-01-28T10:08:22.326Z,4.52
2017-01-28T10:09:32.901Z,4.43
2017-01-28T10:10:43.925Z,4.55
2017-01-28T10:11:54.927Z,4.65
2017-01-28T10:13:05.831Z,4.78
2017-01-28T10:14:16.508Z,4.9
2017-01-28T10:15:27.498Z,5.03
2017-01-28T10:16:37.813Z,5.16
2017-01-28T10:17:48.448Z,5.17
2017-01-28T10:18:59.343Z,5.21
2017-01-28T10:20:09.736Z,5.18
2017-01-28T10:21:20.191Z,5.21
2017-01-28T10:22:30.037Z,5.11
2017-01-28T10:23:40.388Z,4.96
2017-01-28T10:24:50.529Z,4.78
2017-01-28T10:26:00.414Z,4.78
2017-01-28T10:27:10.701Z,4.74
2017-01-28T10:28:20.655Z,4.8
2017-01-28T10:29:31.069Z,4.93
2017-01-28T10:30:41.602Z,5.17
2017-01-28T10:31:51.627Z,5.18
2017-01-28T10:33:01.515Z,5.16
2017-01-28T10:34:11.438Z,5.11
2017-01-28T10:35:21.331Z,4.7
2017-01-28T10:36:31.107Z,4.5
2017-01-28T10:37:41.033Z,4.38
2017-01-28T10:38:51.294Z,4.5
2017-01-28T10:40:01.618Z,4.6
2017-01-28T10:41:11.956Z,4.7
2017-01-28T10:42:22.584Z,4.55
2017-01-28T10:43:32.891Z,4.55
2017-01-28T10:44:42.803Z,4.71
2017-01-28T10:45:53.149Z,4.73
2017-01-28T10:47:03.509Z,4.81
2017-01-28T10:48:14.041Z,4.99
2017-01-28T10:49:24.333Z,5.06
2017-01-28T10:50:34.646Z,5.26
2017-01-28T10:51:44.918Z,5.26
2017-01-28T10:52:54.794Z,5.33
2017-01-28T10:54:05.396Z,5.4
2017-01-28T10:55:14.874Z,5.49
2017-01-28T10:56:25.194Z,5.46
2017-01-28T10:57:35.553Z,5.44
2017-01-28T10:58:45.878Z,5.38
2017-01-28T10:59:56.429Z,5.36
2017-01-28T11:01:06.734Z,5.41
2017-01-28T11:02:17.063Z,5.46
2017-01-28T11:03:27.405Z,5.44
2017-01-28T11:04:37.736Z,5.4
2017-01-28T11:05:47.910Z,5.32
2017-01-28T11:06:58.180Z,5.25
2017-01-28T11:08:08.142Z,5.25
2017-01-28T11:09:18.436Z,5.41
2017-01-28T11:10:28.724Z,5.43
2017-01-28T11:11:39.274Z,5.38
2017-01-28T11:12:49.160Z,5.58
2017-01-28T11:13:59.520Z,5.67
2017-01-28T11:15:09.810Z,5.68
2017-01-28T11:16:20.155Z,5.84
2017-01-28T11:17:30.800Z,5.77
2017-01-28T11:18:41.074Z,5.69
2017-01-28T11:19:51.439Z,5.75
2017-01-28T11:21:00.940Z,5.9
2017-01-28T11:22:11.221Z,5.88
2017-01-28T11:23:21.775Z,6.03
2017-01-28T11:24:32.180Z,5.96
2017-01-28T11:25:42.070Z,6.01
2017-01-28T11:26:51.976Z,5.94
2017-01-28T11:28:01.861Z,5.74
2017-01-28T11:29:12.437Z,5.86
2017-01-28T11:30:22.325Z,5.91
2017-01-28T11:31:32.665Z,5.77
2017-01-28T11:32:42.533Z,5.77
2017-01-28T11:33:52.872Z,5.68
2017-01-28T11:35:03.697Z,5.72
2017-01-28T11:36:13.188Z,5.71
2017-01-28T11:37:23.359Z,5.75
2017-01-28T11:38:33.650Z,5.72
2017-01-28T11:39:43.972Z,5.86
2017-01-28T11:40:53.808Z,5.82
2017-01-28T11:42:04.134Z,5.72
2017-01-28T11:43:14.469Z,5.64
2017-01-28T11:44:24.797Z,5.61
2017-01-28T11:45:34.268Z,5.64
2017-01-28T11:46:44.892Z,5.61
2017-01-28T11:47:54.760Z,5.72
2017-01-28T11:49:05.062Z,5.72
2017-01-28T11:50:15.389Z,5.88
2017-01-28T11:51:25.326Z,5.9
2017-01-28T11:52:35.868Z,5.94
2017-01-28T11:53:45.782Z,6.02
2017-01-28T11:54:56.078Z,6.2
2017-01-28T11:56:06.374Z,6.19
2017-01-28T11:57:15.854Z,6.28
2017-01-28T11:58:26.413Z,6.26
2017-01-28T11:59:36.721Z,6.16
2017-01-28T12:00:47.022Z,6.08
2017-01-28T12:01:57.353Z,5.94
2017-01-28T12:03:07.278Z,5.9
2017-01-28T12:04:17.877Z,5.86
2017-01-28T12:05:27.853Z,5.9
2017-01-28T12:06:38.140Z,6.09
2017-01-28T12:07:48.441Z,6.09
2017-01-28T12:08:58.728Z,5.98
2017-01-28T12:10:09.299Z,6.02
2017-01-28T12:11:19.270Z,5.88
2017-01-28T12:12:29.303Z,5.86
2017-01-28T12:13:39.622Z,5.65
2017-01-28T12:14:50.013Z,5.46
2017-01-28T12:16:00.542Z,5.25
2017-01-28T12:17:10.849Z,5.21
2017-01-28T12:18:21.165Z,5.16
2017-01-28T12:19:31.445Z,5.08
2017-01-28T12:20:40.986Z,5.06
2017-01-28T12:21:51.563Z,4.96
2017-01-28T12:23:01.868Z,4.89
2017-01-28T12:24:12.168Z,4.83
2017-01-28T12:25:22.467Z,4.7
2017-01-28T12:26:32.847Z,4.62
2017-01-28T12:27:42.969Z,4.55
2017-01-28T12:28:53.296Z,4.59
2017-01-28T12:30:03.660Z,4.53
2017-01-28T12:31:13.559Z,4.49
2017-01-28T12:32:23.943Z,4.53
2017-01-28T12:33:34.072Z,4.53
2017-01-28T12:34:44.028Z,4.53
2017-01-28T12:35:54.465Z,4.49
2017-01-28T12:37:05.092Z,4.38
2017-01-28T12:38:15.423Z,4.37
2017-01-28T12:39:24.901Z,4.37
2017-01-28T12:40:35.215Z,4.55
2017-01-28T12:41:45.520Z,4.47
2017-01-28T12:42:57.750Z,4.38
2017-01-28T12:44:07.639Z,4.38
2017-01-28T12:45:17.983Z,4.46
2017-01-28T12:46:27.867Z,4.27
2017-01-28T12:47:38.166Z,4.3
2017-01-28T12:48:48.368Z,4.38
2017-01-28T12:49:58.667Z,4.55
2017-01-28T12:51:08.604Z,4.57
2017-01-28T12:52:18.886Z,4.56
2017-01-28T12:53:28.063Z,4.68
2017-01-28T12:54:38.637Z,4.89
2017-01-28T12:55:48.946Z,5.04
2017-01-28T12:56:59.286Z,5.16
2017-01-28T12:58:09.194Z,5.22
2017-01-28T12:59:19.518Z,5.26
2017-01-28T13:00:30.133Z,5.28
2017-01-28T13:01:40.490Z,5.44
2017-01-28T13:02:50.448Z,5.4
2017-01-28T13:04:00.436Z,5.24
2017-01-28T13:05:10.749Z,5.25
2017-01-28T13:06:20.615Z,5.11
2017-01-28T13:07:30.186Z,4.92
2017-01-28T13:08:40.073Z,4.67
2017-01-28T13:09:50.560Z,4.28
2017-01-28T13:11:00.585Z,4
2017-01-28T13:12:11.148Z,3.72
2017-01-28T13:13:21.496Z,3.62
2017-01-28T13:14:31.404Z,3.28
2017-01-28T13:15:40.885Z,3.21
2017-01-28T13:16:51.192Z,3.04
2017-01-28T13:18:00.550Z,2.85
2017-01-28T13:19:10.899Z,2.73
2017-01-28T13:20:20.809Z,2.46
2017-01-28T13:21:30.320Z,2.28
2017-01-28T13:22:40.248Z,2.13
2017-01-28T13:23:50.997Z,2.1
2017-01-28T13:25:01.301Z,2.03
2017-01-28T13:26:11.613Z,1.98
2017-01-28T13:27:21.960Z,1.91
2017-01-28T13:28:32.422Z,1.92
2017-01-28T13:29:43.032Z,1.73
2017-01-28T13:30:53.400Z,1.53
2017-01-28T13:32:03.592Z,1.47
2017-01-28T13:33:13.549Z,1.58
2017-01-28T13:34:23.889Z,1.54
2017-01-28T13:35:34.079Z,1.48
2017-01-28T13:36:44.490Z,1.33
2017-01-28T13:37:54.409Z,1.15
2017-01-28T13:39:04.304Z,1.04
2017-01-28T13:40:14.695Z,1
2017-01-28T13:41:24.928Z,0.9
2017-01-28T13:42:34.880Z,0.76
2017-01-28T13:43:45.188Z,0.63
2017-01-28T13:44:55.449Z,0.57
2017-01-28T13:46:05.760Z,0.61
2017-01-28T13:47:16.017Z,0.56
2017-01-28T13:48:26.333Z,0.56
2017-01-28T13:49:36.638Z,0.4
2017-01-28T13:50:46.629Z,0.33
2017-01-28T13:51:56.992Z,0.27
2017-01-28T13:53:07.579Z,0.22
2017-01-28T13:54:17.880Z,0.21
2017-01-28T13:55:27.389Z,0.06
2017-01-28T13:56:37.388Z,0.16
2017-01-28T13:57:47.719Z,0.16
2017-01-28T13:58:57.921Z,0.05
2017-01-28T14:00:08.213Z,0.16
2017-01-28T14:01:18.109Z,0.27
2017-01-28T14:02:27.997Z,0.24
2017-01-28T14:03:38.327Z,0.31
2017-01-28T14:04:48.925Z,0.35
2017-01-28T14:05:59.316Z,0.4
2017-01-28T14:07:09.665Z,0.45
2017-01-28T14:08:19.578Z,0.3
2017-01-28T14:09:29.548Z,0.25
2017-01-28T14:10:40.120Z,0.11
2017-01-28T14:11:50.479Z,-0.04
2017-01-28T14:13:00.809Z,-0.15
2017-01-28T14:14:11.361Z,-0.17
2017-01-28T14:15:21.283Z,-0.22
2017-01-28T14:16:31.942Z,-0.19
2017-01-28T14:17:42.238Z,-0.16
2017-01-28T14:18:52.602Z,-0.16
2017-01-28T14:20:02.939Z,-0.15
2017-01-28T14:21:13.257Z,-0.16
2017-01-28T14:22:23.830Z,-0.25
2017-01-28T14:23:34.278Z,-0.19
2017-01-28T14:24:44.761Z,-0.28
2017-01-28T14:25:56.989Z,-0.22
2017-01-28T14:27:15.210Z,-0.13
2017-01-28T14:28:28.512Z,-0.17
2017-01-28T14:29:40.303Z,-0.06
2017-01-28T14:30:52.497Z,-0.09
2017-01-28T14:32:03.967Z,-0.04
2017-01-28T14:33:16.424Z,-0.04
2017-01-28T14:34:26.734Z,-0.02
2017-01-28T14:35:37.199Z,-0.04
2017-01-28T14:36:47.112Z,0.06
2017-01-28T14:37:57.641Z,-0.01
2017-01-28T14:39:08.196Z,-0.01
2017-01-28T14:40:18.119Z,-0.1
2017-01-28T14:41:28.015Z,-0.13
2017-01-28T14:42:37.911Z,-0.12
2017-01-28T14:43:48.307Z,-0.09
2017-01-28T14:44:58.974Z,-0.19
2017-01-28T14:46:09.369Z,-0.15
2017-01-28T14:47:19.722Z,-0.13
2017-01-28T14:48:29.624Z,-0.06
2017-01-28T14:49:39.930Z,-0.25
2017-01-28T14:50:50.172Z,-0.23
2017-01-28T14:52:00.480Z,-0.33
2017-01-28T14:53:10.795Z,-0.31
2017-01-28T14:54:21.307Z,-0.3
2017-01-28T14:55:31.232Z,-0.31
2017-01-28T14:56:41.768Z,-0.3
2017-01-28T14:57:51.654Z,-0.34
2017-01-28T14:59:02.001Z,-0.34
2017-01-28T15:00:12.287Z,-0.31
2017-01-28T15:01:22.210Z,-0.23
2017-01-28T15:02:32.784Z,-0.33
2017-01-28T15:03:43.097Z,-0.31
2017-01-28T15:04:53.444Z,-0.33
2017-01-28T15:06:03.943Z,-0.46
2017-01-28T15:07:14.291Z,-0.49
2017-01-28T15:08:24.895Z,-0.48
2017-01-28T15:09:34.786Z,-0.48
2017-01-28T15:10:45.115Z,-0.43
2017-01-28T15:11:55.061Z,-0.49
2017-01-28T15:13:05.363Z,-0.59
2017-01-28T15:14:15.555Z,-0.59
2017-01-28T15:15:25.932Z,-0.58
2017-01-28T15:16:36.279Z,-0.6
2017-01-28T15:17:46.600Z,-0.66
2017-01-28T15:18:56.993Z,-0.73
2017-01-28T15:20:07.140Z,-0.73
2017-01-28T15:21:17.507Z,-0.76
2017-01-28T15:22:27.414Z,-0.82
2017-01-28T15:23:37.769Z,-0.76
2017-01-28T15:24:48.043Z,-0.76